sensor_id;sensor_type;location;lat;lon;timestamp;pressure;altitude;pressure_sealevel;temperature;humidity
60715;BME280;46564;53.096;8.246;2023-07-09T09:47:26;101783.34;;;30.47;48.07
60715;BME280;46564;53.096;8.246;2023-07-09T09:52:31;101786.50;;;30.38;46.62
60715;BME280;46564;53.096;8.246;2023-07-09T09:57:32;101791.00;;;30.74;47.07
60715;BME280;46564;53.096;8.246;2023-07-09T10:02:39;101790.34;;;31.04;47.45
60715;BME280;46564;53.096;8.246;2023-07-09T10:07:50;101787.94;;;30.98;46.65
60715;BME280;46564;53.096;8.246;2023-07-09T10:13:23;101781.47;;;31.51;46.40
60715;BME280;46564;53.096;8.246;2023-07-09T10:18:43;101786.94;;;31.83;45.47
60715;BME280;46564;53.096;8.246;2023-07-09T10:24:10;101795.50;;;32.23;44.73
60715;BME280;46564;53.096;8.246;2023-07-09T10:34:57;101789.34;;;32.36;42.70
60715;BME280;46564;53.096;8.246;2023-07-09T10:40:04;101784.00;;;32.65;42.92
60715;BME280;46564;53.096;8.246;2023-07-09T10:45:13;101786.28;;;32.42;41.68
60715;BME280;46564;53.096;8.246;2023-07-09T10:50:18;101777.66;;;32.80;41.08
60715;BME280;46564;53.096;8.246;2023-07-09T10:55:31;101785.41;;;32.72;40.63
60715;BME280;46564;53.096;8.246;2023-07-09T11:00:36;101785.84;;;32.94;40.27
60715;BME280;46564;53.096;8.246;2023-07-09T11:05:38;101780.06;;;33.44;39.90
60715;BME280;46564;53.096;8.246;2023-07-09T11:10:55;101778.69;;;33.22;38.69
60715;BME280;46564;53.096;8.246;2023-07-09T11:15:58;101776.75;;;32.35;38.72
60715;BME280;46564;53.096;8.246;2023-07-09T11:26:30;101766.97;;;32.32;39.78
60715;BME280;46564;53.096;8.246;2023-07-09T11:31:39;101754.41;;;32.46;39.41
60715;BME280;46564;53.096;8.246;2023-07-09T11:36:59;101742.84;;;32.88;39.55
60715;BME280;46564;53.096;8.246;2023-07-09T11:42:00;101738.94;;;33.07;39.02
60715;BME280;46564;53.096;8.246;2023-07-09T11:47:21;101736.59;;;33.58;38.48
60715;BME280;46564;53.096;8.246;2023-07-09T11:52:51;101741.00;;;33.88;38.18
60715;BME280;46564;53.096;8.246;2023-07-09T11:58:00;101732.84;;;33.46;38.66
60715;BME280;46564;53.096;8.246;2023-07-09T12:03:02;101739.50;;;33.55;38.75
60715;BME280;46564;53.096;8.246;2023-07-09T12:08:06;101741.09;;;33.45;37.78
60715;BME280;46564;53.096;8.246;2023-07-09T12:13:09;101734.78;;;33.44;37.19
60715;BME280;46564;53.096;8.246;2023-07-09T12:18:14;101723.09;;;33.57;38.00
60715;BME280;46564;53.096;8.246;2023-07-09T12:23:20;101716.28;;;33.37;38.08
60715;BME280;46564;53.096;8.246;2023-07-09T12:28:23;101719.59;;;33.69;38.38
60715;BME280;46564;53.096;8.246;2023-07-09T12:33:26;101712.03;;;33.74;37.41
60715;BME280;46564;53.096;8.246;2023-07-09T12:38:30;101704.66;;;33.76;37.61
60715;BME280;46564;53.096;8.246;2023-07-09T12:43:39;101700.66;;;33.40;37.18
60715;BME280;46564;53.096;8.246;2023-07-09T12:48:40;101682.97;;;33.20;37.17
60715;BME280;46564;53.096;8.246;2023-07-09T12:53:42;101678.25;;;33.51;37.53
60715;BME280;46564;53.096;8.246;2023-07-09T12:58:43;101666.16;;;33.42;37.78
60715;BME280;46564;53.096;8.246;2023-07-09T13:03:54;101665.31;;;33.27;37.74
60715;BME280;46564;53.096;8.246;2023-07-09T13:08:58;101648.91;;;33.71;37.79
60715;BME280;46564;53.096;8.246;2023-07-09T13:14:05;101651.81;;;33.95;37.65
60715;BME280;46564;53.096;8.246;2023-07-09T13:19:07;101661.16;;;33.91;36.76
60715;BME280;46564;53.096;8.246;2023-07-09T13:24:22;101668.59;;;34.14;36.49
60715;BME280;46564;53.096;8.246;2023-07-09T13:29:24;101670.94;;;33.93;36.03
60715;BME280;46564;53.096;8.246;2023-07-09T13:34:27;101658.66;;;33.88;35.72
60715;BME280;46564;53.096;8.246;2023-07-09T13:39:29;101657.38;;;34.06;35.57
60715;BME280;46564;53.096;8.246;2023-07-09T13:44:30;101664.03;;;34.02;35.46
60715;BME280;46564;53.096;8.246;2023-07-09T13:49:32;101662.53;;;34.24;35.42
60715;BME280;46564;53.096;8.246;2023-07-09T13:54:33;101664.66;;;34.06;34.11
60715;BME280;46564;53.096;8.246;2023-07-09T13:59:35;101646.91;;;33.87;34.60
60715;BME280;46564;53.096;8.246;2023-07-09T14:04:36;101641.09;;;34.19;35.47
60715;BME280;46564;53.096;8.246;2023-07-09T14:09:37;101639.09;;;34.35;35.23
60715;BME280;46564;53.096;8.246;2023-07-09T14:14:39;101633.66;;;33.82;34.71
60715;BME280;46564;53.096;8.246;2023-07-09T14:19:40;101628.34;;;33.81;35.53
60715;BME280;46564;53.096;8.246;2023-07-09T14:24:42;101622.00;;;33.53;35.61
60715;BME280;46564;53.096;8.246;2023-07-09T14:29:43;101605.38;;;33.45;35.81
60715;BME280;46564;53.096;8.246;2023-07-09T14:34:45;101581.97;;;33.29;36.51
60715;BME280;46564;53.096;8.246;2023-07-09T14:39:46;101571.13;;;33.15;37.02
60715;BME280;46564;53.096;8.246;2023-07-09T14:44:48;101572.31;;;33.25;37.08
60715;BME280;46564;53.096;8.246;2023-07-09T14:49:50;101580.44;;;33.25;36.96
60715;BME280;46564;53.096;8.246;2023-07-09T14:54:52;101576.28;;;33.20;37.71
60715;BME280;46564;53.096;8.246;2023-07-09T14:59:53;101581.25;;;32.99;37.58
60715;BME280;46564;53.096;8.246;2023-07-09T15:04:55;101570.63;;;32.81;37.72
60715;BME280;46564;53.096;8.246;2023-07-09T15:10:00;101569.19;;;32.75;37.26
60715;BME280;46564;53.096;8.246;2023-07-09T15:20:27;101550.09;;;32.77;38.34
60715;BME280;46564;53.096;8.246;2023-07-09T15:25:30;101548.19;;;32.79;38.89
60715;BME280;46564;53.096;8.246;2023-07-09T15:30:31;101525.69;;;32.77;39.88
60715;BME280;46564;53.096;8.246;2023-07-09T15:35:34;101530.56;;;32.72;39.45
60715;BME280;46564;53.096;8.246;2023-07-09T15:40:37;101527.81;;;32.57;39.57
60715;BME280;46564;53.096;8.246;2023-07-09T15:45:42;101514.50;;;32.40;39.47
60715;BME280;46564;53.096;8.246;2023-07-09T15:50:45;101503.75;;;32.24;40.21
60715;BME280;46564;53.096;8.246;2023-07-09T15:55:46;101515.56;;;32.23;40.58
60715;BME280;46564;53.096;8.246;2023-07-09T16:00:49;101528.03;;;32.11;40.91
60715;BME280;46564;53.096;8.246;2023-07-09T16:05:51;101538.25;;;32.06;40.35
60715;BME280;46564;53.096;8.246;2023-07-09T16:10:52;101538.53;;;32.01;40.48
60715;BME280;46564;53.096;8.246;2023-07-09T16:15:54;101529.56;;;32.01;40.50
60715;BME280;46564;53.096;8.246;2023-07-09T16:20:55;101530.63;;;31.98;40.95
60715;BME280;46564;53.096;8.246;2023-07-09T16:25:57;101522.78;;;31.94;42.57
60715;BME280;46564;53.096;8.246;2023-07-09T16:30:58;101530.84;;;31.79;44.23
60715;BME280;46564;53.096;8.246;2023-07-09T16:35:59;101530.13;;;31.61;45.89
60715;BME280;46564;53.096;8.246;2023-07-09T16:41:01;101541.41;;;31.37;46.34
60715;BME280;46564;53.096;8.246;2023-07-09T16:46:16;101541.66;;;31.18;47.24
60715;BME280;46564;53.096;8.246;2023-07-09T16:51:22;101532.19;;;30.94;47.93
60715;BME280;46564;53.096;8.246;2023-07-09T16:56:24;101508.94;;;30.75;49.51
60715;BME280;46564;53.096;8.246;2023-07-09T17:01:26;101512.69;;;30.57;49.58
60715;BME280;46564;53.096;8.246;2023-07-09T17:06:27;101494.03;;;30.35;50.01
60715;BME280;46564;53.096;8.246;2023-07-09T17:11:28;101485.72;;;30.06;50.57
60715;BME280;46564;53.096;8.246;2023-07-09T17:16:30;101501.22;;;29.85;51.12
60715;BME280;46564;53.096;8.246;2023-07-09T17:21:31;101510.91;;;29.71;51.77
60715;BME280;46564;53.096;8.246;2023-07-09T17:26:33;101526.50;;;29.65;51.83
60715;BME280;46564;53.096;8.246;2023-07-09T17:31:34;101516.59;;;29.48;52.72
60715;BME280;46564;53.096;8.246;2023-07-09T17:36:36;101510.38;;;29.28;53.85
60715;BME280;46564;53.096;8.246;2023-07-09T17:41:38;101513.84;;;29.13;54.38
60715;BME280;46564;53.096;8.246;2023-07-09T17:46:39;101698.44;;;28.85;54.71
60715;BME280;46564;53.096;8.246;2023-07-09T17:51:40;101698.44;;;28.85;54.71
60715;BME280;46564;53.096;8.246;2023-07-09T17:56:43;101892.63;;;23.44;66.68
60715;BME280;46564;53.096;8.246;2023-07-09T18:06:57;57128.34;;;-147.53;100.00
60715;BME280;46564;53.096;8.246;2023-07-09T18:12:00;57128.34;;;-147.53;100.00
60715;BME280;46564;53.096;8.246;2023-07-09T18:17:05;57128.34;;;-147.53;100.00
60715;BME280;46564;53.096;8.246;2023-07-09T18:22:15;57128.34;;;-147.53;100.00
60715;BME280;46564;53.096;8.246;2023-07-09T18:27:20;57128.34;;;-147.53;100.00
60715;BME280;46564;53.096;8.246;2023-07-09T18:32:24;57128.34;;;-147.53;100.00
60715;BME280;46564;53.096;8.246;2023-07-09T18:37:27;57128.34;;;-147.53;100.00
60715;BME280;46564;53.096;8.246;2023-07-09T18:42:28;57128.34;;;-147.53;100.00
60715;BME280;46564;53.096;8.246;2023-07-09T18:47:30;57128.34;;;-147.53;100.00
60715;BME280;46564;53.096;8.246;2023-07-09T18:52:31;57128.34;;;-147.53;100.00
60715;BME280;46564;53.096;8.246;2023-07-09T18:57:33;57128.34;;;-147.53;100.00
60715;BME280;46564;53.096;8.246;2023-07-09T19:02:34;57128.34;;;-147.53;100.00
60715;BME280;46564;53.096;8.246;2023-07-09T19:07:36;57128.34;;;-147.53;100.00
60715;BME280;46564;53.096;8.246;2023-07-09T19:12:37;57128.34;;;-147.53;100.00
60715;BME280;46564;53.096;8.246;2023-07-09T19:17:39;57128.34;;;-147.53;100.00
60715;BME280;46564;53.096;8.246;2023-07-09T19:22:41;57128.34;;;-147.53;100.00
60715;BME280;46564;53.096;8.246;2023-07-09T19:27:42;57128.34;;;-147.53;100.00
60715;BME280;46564;53.096;8.246;2023-07-09T19:32:49;57128.34;;;-147.53;100.00
60715;BME280;46564;53.096;8.246;2023-07-09T19:37:52;57128.34;;;-147.53;100.00
60715;BME280;46564;53.096;8.246;2023-07-09T19:42:55;57128.34;;;-147.53;100.00
60715;BME280;46564;53.096;8.246;2023-07-09T19:47:56;57128.34;;;-147.53;100.00
60715;BME280;46564;53.096;8.246;2023-07-09T19:53:00;57128.34;;;-147.53;100.00
60715;BME280;46564;53.096;8.246;2023-07-09T19:58:02;57128.34;;;-147.53;100.00
60715;BME280;46564;53.096;8.246;2023-07-09T20:03:08;57128.34;;;-147.53;100.00
60715;BME280;46564;53.096;8.246;2023-07-09T20:08:15;57128.34;;;-147.53;100.00
60715;BME280;46564;53.096;8.246;2023-07-09T20:13:25;57128.34;;;-147.53;100.00
60715;BME280;46564;53.096;8.246;2023-07-09T20:18:28;57128.34;;;-147.53;100.00
60715;BME280;46564;53.096;8.246;2023-07-09T20:23:29;57128.34;;;-147.53;100.00
60715;BME280;46564;53.096;8.246;2023-07-09T20:28:31;57128.34;;;-147.53;100.00
60715;BME280;46564;53.096;8.246;2023-07-09T20:33:32;57128.34;;;-147.53;100.00
60715;BME280;46564;53.096;8.246;2023-07-09T20:38:34;57128.34;;;-147.53;100.00
60715;BME280;46564;53.096;8.246;2023-07-09T20:43:38;57128.34;;;-147.53;100.00
60715;BME280;46564;53.096;8.246;2023-07-09T20:48:40;57128.34;;;-147.53;100.00
60715;BME280;46564;53.096;8.246;2023-07-09T20:53:42;57128.34;;;-147.53;100.00
60715;BME280;46564;53.096;8.246;2023-07-09T20:58:43;57128.34;;;-147.53;100.00
60715;BME280;46564;53.096;8.246;2023-07-09T21:03:45;57128.34;;;-147.53;100.00
60715;BME280;46564;53.096;8.246;2023-07-09T21:08:46;57128.34;;;-147.53;100.00
60715;BME280;46564;53.096;8.246;2023-07-09T21:13:48;57128.34;;;-147.53;100.00
60715;BME280;46564;53.096;8.246;2023-07-09T21:18:49;57128.34;;;-147.53;100.00
60715;BME280;46564;53.096;8.246;2023-07-09T21:23:51;57128.34;;;-147.53;100.00
60715;BME280;46564;53.096;8.246;2023-07-09T21:28:52;57128.34;;;-147.53;100.00
60715;BME280;46564;53.096;8.246;2023-07-09T21:33:54;57128.34;;;-147.53;100.00
60715;BME280;46564;53.096;8.246;2023-07-09T21:38:55;57128.34;;;-147.53;100.00
60715;BME280;46564;53.096;8.246;2023-07-09T21:43:56;57128.34;;;-147.53;100.00
60715;BME280;46564;53.096;8.246;2023-07-09T21:48:58;57128.34;;;-147.53;100.00
60715;BME280;46564;53.096;8.246;2023-07-09T21:53:59;57128.34;;;-147.53;100.00
60715;BME280;46564;53.096;8.246;2023-07-09T21:59:04;57128.34;;;-147.53;100.00
60715;BME280;46564;53.096;8.246;2023-07-09T22:04:19;57128.34;;;-147.53;100.00
60715;BME280;46564;53.096;8.246;2023-07-09T22:09:22;57128.34;;;-147.53;100.00
60715;BME280;46564;53.096;8.246;2023-07-09T22:14:24;57128.34;;;-147.53;100.00
60715;BME280;46564;53.096;8.246;2023-07-09T22:19:26;57128.34;;;-147.53;100.00
60715;BME280;46564;53.096;8.246;2023-07-09T22:24:44;57128.34;;;-147.53;100.00
60715;BME280;46564;53.096;8.246;2023-07-09T22:29:46;57128.34;;;-147.53;100.00
60715;BME280;46564;53.096;8.246;2023-07-09T22:34:47;57128.34;;;-147.53;100.00
60715;BME280;46564;53.096;8.246;2023-07-09T22:39:49;57128.34;;;-147.53;100.00
60715;BME280;46564;53.096;8.246;2023-07-09T22:44:50;57128.34;;;-147.53;100.00
60715;BME280;46564;53.096;8.246;2023-07-09T22:49:52;57128.34;;;-147.53;100.00
60715;BME280;46564;53.096;8.246;2023-07-09T22:54:56;57128.34;;;-147.53;100.00
60715;BME280;46564;53.096;8.246;2023-07-09T22:59:58;57128.34;;;-147.53;100.00
60715;BME280;46564;53.096;8.246;2023-07-09T23:05:00;57128.34;;;-147.53;100.00
60715;BME280;46564;53.096;8.246;2023-07-09T23:10:01;57128.34;;;-147.53;100.00
60715;BME280;46564;53.096;8.246;2023-07-09T23:15:20;57128.34;;;-147.53;100.00
60715;BME280;46564;53.096;8.246;2023-07-09T23:20:23;57128.34;;;-147.53;100.00
60715;BME280;46564;53.096;8.246;2023-07-09T23:25:24;57128.34;;;-147.53;100.00
60715;BME280;46564;53.096;8.246;2023-07-09T23:30:27;57128.34;;;-147.53;100.00
60715;BME280;46564;53.096;8.246;2023-07-09T23:35:29;57128.34;;;-147.53;100.00
60715;BME280;46564;53.096;8.246;2023-07-09T23:40:31;57128.34;;;-147.53;100.00
60715;BME280;46564;53.096;8.246;2023-07-09T23:45:33;57128.34;;;-147.53;100.00
60715;BME280;46564;53.096;8.246;2023-07-09T23:50:35;57128.34;;;-147.53;100.00
60715;BME280;46564;53.096;8.246;2023-07-09T23:55:36;57128.34;;;-147.53;100.00
